createdAt,value
2022-11-28T00:01:41.412Z,10.02
2022-11-28T00:04:10.420Z,10.52
2022-11-28T00:06:40.141Z,9.50
2022-11-28T00:09:09.815Z,9.23
2022-11-28T00:11:40.061Z,9.75
2022-11-28T00:14:08.803Z,9.98
2022-11-28T00:16:37.499Z,11.63
2022-11-28T00:19:07.937Z,9.93
2022-11-28T00:21:36.378Z,10.63
2022-11-28T00:24:05.168Z,11.02
2022-11-28T00:26:35.029Z,10.20
2022-11-28T00:29:05.021Z,10.80
2022-11-28T00:31:35.977Z,10.48
2022-11-28T00:34:06.121Z,10.60
2022-11-28T00:36:34.331Z,11.48
2022-11-28T00:39:02.534Z,10.85
2022-11-28T00:41:33.924Z,12.40
2022-11-28T00:44:02.365Z,12.18
2022-11-28T00:46:30.986Z,12.73
2022-11-28T00:48:59.879Z,12.27
2022-11-28T00:51:31.557Z,12.55
2022-11-28T00:54:01.347Z,11.27
2022-11-28T00:56:32.043Z,12.38
2022-11-28T00:59:00.803Z,13.40
2022-11-28T01:01:32.076Z,13.65
2022-11-28T01:04:02.232Z,13.52
2022-11-28T01:06:34.074Z,14.52
2022-11-28T01:09:04.767Z,14.63
2022-11-28T01:11:33.280Z,12.13
2022-11-28T01:14:02.784Z,15.05
2022-11-28T01:16:31.471Z,14.90
2022-11-28T01:18:59.940Z,14.65
2022-11-28T01:21:28.645Z,13.07
2022-11-28T01:23:58.510Z,15.05
2022-11-28T01:26:29.199Z,13.63
2022-11-28T01:28:57.639Z,15.50
2022-11-28T01:31:28.439Z,15.38
2022-11-28T01:33:57.565Z,15.18
2022-11-28T01:36:26.147Z,15.65
2022-11-28T01:38:54.580Z,15.07
2022-11-28T01:41:26.508Z,15.52
2022-11-28T01:44:03.970Z,15.38
2022-11-28T01:46:32.650Z,14.45
2022-11-28T01:49:06.063Z,16.13
2022-11-28T01:51:34.875Z,15.27
2022-11-28T01:54:03.853Z,15.95
2022-11-28T01:56:41.648Z,15.60
2022-11-28T01:59:12.815Z,16.73
2022-11-28T02:01:41.408Z,17.77
2022-11-28T02:04:11.430Z,14.98
2022-11-28T02:06:39.597Z,16.35
2022-11-28T02:09:11.029Z,16.60
2022-11-28T02:12:02.348Z,15.43
2022-11-28T02:14:56.701Z,17.20
2022-11-28T02:17:32.555Z,14.73
2022-11-28T02:20:28.804Z,14.32
2022-11-28T02:23:07.896Z,12.95
2022-11-28T02:25:59.277Z,15.45
2022-11-28T02:29:03.835Z,13.52
2022-11-28T02:34:14.931Z,14.60
2022-11-28T02:36:48.618Z,13.82
2022-11-28T02:41:57.828Z,12.35
2022-11-28T02:44:32.442Z,12.57
2022-11-28T02:47:06.869Z,14.85
2022-11-28T02:49:43.518Z,12.18
2022-11-28T02:52:16.536Z,11.82
2022-11-28T02:54:46.270Z,12.45
2022-11-28T02:57:14.412Z,14.43
2022-11-28T02:59:50.531Z,13.75
2022-11-28T03:02:24.176Z,13.55
2022-11-28T03:07:40.073Z,13.23
2022-11-28T03:10:20.130Z,15.07
2022-11-28T03:12:57.131Z,18.15
2022-11-28T03:15:33.981Z,16.08
2022-11-28T03:18:11.541Z,18.05
2022-11-28T03:20:48.353Z,17.23
2022-11-28T03:23:18.272Z,16.98
2022-11-28T03:25:59.386Z,19.98
2022-11-28T03:28:31.720Z,20.88
2022-11-28T03:31:03.308Z,20.77
2022-11-28T03:33:34.735Z,22.00
2022-11-28T03:36:07.960Z,24.60
2022-11-28T03:38:39.118Z,25.40
2022-11-28T03:41:12.950Z,30.48
2022-11-28T03:43:45.585Z,31.30
2022-11-28T03:46:17.768Z,29.83
2022-11-28T03:48:48.070Z,31.38
2022-11-28T03:51:19.936Z,26.70
2022-11-28T03:53:54.348Z,33.63
2022-11-28T03:56:27.839Z,34.80
2022-11-28T03:59:01.385Z,31.80
2022-11-28T04:01:34.021Z,37.78
2022-11-28T04:04:15.453Z,36.45
2022-11-28T04:06:59.144Z,39.95
2022-11-28T04:09:41.026Z,39.55
2022-11-28T04:12:16.432Z,45.72
2022-11-28T04:14:49.740Z,42.92
2022-11-28T04:17:21.498Z,47.30
2022-11-28T04:19:53.109Z,52.25
2022-11-28T04:22:28.392Z,47.80
2022-11-28T04:24:59.724Z,50.38
2022-11-28T04:27:32.945Z,49.55
2022-11-28T04:30:04.461Z,55.17
2022-11-28T04:32:37.710Z,56.17
2022-11-28T04:35:09.010Z,46.72
2022-11-28T04:37:40.824Z,51.53
2022-11-28T04:40:11.194Z,56.40
2022-11-28T04:42:47.591Z,60.60
2022-11-28T04:45:24.279Z,61.17
2022-11-28T04:47:53.305Z,59.58
2022-11-28T04:50:23.242Z,58.70
2022-11-28T04:52:57.343Z,60.63
2022-11-28T04:55:31.404Z,56.60
2022-11-28T04:58:09.924Z,54.80
2022-11-28T05:00:39.523Z,60.42
2022-11-28T05:03:08.997Z,59.03
2022-11-28T05:05:45.411Z,62.15
2022-11-28T05:08:15.630Z,57.85
2022-11-28T05:10:43.809Z,58.67
2022-11-28T05:13:12.299Z,61.20
2022-11-28T05:15:40.625Z,62.63
2022-11-28T05:18:08.783Z,69.75
2022-11-28T05:20:38.298Z,69.22
2022-11-28T05:23:06.940Z,69.43
2022-11-28T05:25:38.441Z,67.68
2022-11-28T05:28:06.985Z,63.83
2022-11-28T05:30:35.190Z,62.40
2022-11-28T05:33:03.978Z,65.70
2022-11-28T05:35:32.195Z,59.15
2022-11-28T05:38:00.414Z,57.22
2022-11-28T05:40:28.688Z,54.47
2022-11-28T05:42:58.567Z,48.33
2022-11-28T05:45:26.675Z,49.83
2022-11-28T05:47:54.797Z,48.05
2022-11-28T05:50:23.222Z,41.75
2022-11-28T05:52:51.309Z,41.08
2022-11-28T05:55:19.474Z,37.03
2022-11-28T05:57:48.292Z,38.15
2022-11-28T06:00:18.799Z,39.85
2022-11-28T06:02:46.963Z,40.08
2022-11-28T06:05:40.393Z,36.60
2022-11-28T06:08:03.921Z,35.80
2022-11-28T06:10:32.819Z,36.90
2022-11-28T06:13:01.027Z,33.05
2022-11-28T06:15:34.938Z,35.45
2022-11-28T06:18:06.182Z,37.20
2022-11-28T06:20:36.485Z,40.72
2022-11-28T06:23:04.999Z,38.85
2022-11-28T06:25:33.438Z,42.30
2022-11-28T06:28:01.638Z,42.72
2022-11-28T06:30:31.093Z,40.15
2022-11-28T06:32:59.417Z,44.50
2022-11-28T06:35:27.539Z,46.92
2022-11-28T06:37:55.637Z,45.38
2022-11-28T06:40:23.806Z,48.03
2022-11-28T06:42:51.915Z,46.97
2022-11-28T06:45:20.226Z,46.50
2022-11-28T06:47:49.988Z,45.50
2022-11-28T06:50:18.241Z,46.65
2022-11-28T06:52:46.371Z,46.88
2022-11-28T06:55:14.682Z,43.95
2022-11-28T06:57:42.769Z,45.03
2022-11-28T07:00:11.911Z,47.13
2022-11-28T07:02:40.473Z,48.40
2022-11-28T07:05:10.796Z,40.47
2022-11-28T07:07:53.276Z,46.70
2022-11-28T07:10:23.206Z,51.45
2022-11-28T07:12:55.201Z,48.53
2022-11-28T07:15:23.625Z,48.30
2022-11-28T07:17:52.123Z,46.33
2022-11-28T07:20:21.894Z,49.17
2022-11-28T07:22:50.563Z,53.05
2022-11-28T07:25:18.859Z,50.85
2022-11-28T07:27:49.868Z,49.45
2022-11-28T07:30:20.143Z,50.60
2022-11-28T07:32:48.223Z,47.38
2022-11-28T07:35:16.556Z,44.65
2022-11-28T07:37:46.554Z,48.85
2022-11-28T07:40:15.235Z,43.33
2022-11-28T07:42:43.456Z,51.67
2022-11-28T07:45:12.534Z,48.17
2022-11-28T07:47:40.790Z,46.20
2022-11-28T07:50:10.026Z,47.38
2022-11-28T07:52:38.560Z,48.67
2022-11-28T07:55:09.093Z,45.85
2022-11-28T07:57:37.198Z,52.22
2022-11-28T08:00:06.306Z,49.80
2022-11-28T08:02:34.792Z,47.60
2022-11-28T08:05:04.421Z,54.10
2022-11-28T08:07:32.768Z,49.60
2022-11-28T08:10:01.040Z,54.20
2022-11-28T08:12:30.553Z,50.35
2022-11-28T08:14:58.793Z,48.63
2022-11-28T08:17:27.135Z,53.00
2022-11-28T08:19:55.227Z,53.75
2022-11-28T08:22:23.478Z,53.72
2022-11-28T08:24:51.893Z,56.10
2022-11-28T08:27:20.091Z,52.72
2022-11-28T08:29:53.208Z,53.10
2022-11-28T08:34:50.449Z,53.90
2022-11-28T08:37:18.563Z,49.50
2022-11-28T08:39:46.906Z,51.80
2022-11-28T08:42:15.094Z,54.42
2022-11-28T08:44:43.226Z,52.20
2022-11-28T08:47:13.270Z,51.55
2022-11-28T08:49:42.300Z,54.45
2022-11-28T08:52:11.028Z,48.80
2022-11-28T08:54:39.403Z,48.03
2022-11-28T08:57:08.195Z,48.63
2022-11-28T08:59:37.176Z,51.03
2022-11-28T09:02:05.301Z,53.85
2022-11-28T09:04:35.186Z,48.80
2022-11-28T09:07:03.421Z,53.65
2022-11-28T09:09:32.885Z,46.08
2022-11-28T09:12:01.635Z,47.22
2022-11-28T09:14:29.867Z,43.95
2022-11-28T09:16:58.019Z,45.95
2022-11-28T09:19:26.631Z,44.92
2022-11-28T09:21:58.018Z,49.70
2022-11-28T09:24:26.359Z,43.50
2022-11-28T09:26:54.735Z,50.65
2022-11-28T09:29:23.031Z,47.25
2022-11-28T09:31:51.236Z,43.42
2022-11-28T09:34:19.678Z,50.97
2022-11-28T09:36:50.081Z,48.60
2022-11-28T09:39:19.633Z,47.53
2022-11-28T09:42:01.263Z,47.75
2022-11-28T09:44:37.598Z,48.47
2022-11-28T09:47:12.027Z,41.22
2022-11-28T09:49:47.621Z,45.75
2022-11-28T09:52:29.534Z,44.13
2022-11-28T09:55:11.036Z,46.05
2022-11-28T09:57:44.843Z,43.58
2022-11-28T10:00:18.739Z,44.30
2022-11-28T10:02:59.910Z,49.03
2022-11-28T10:05:36.979Z,50.25
2022-11-28T10:08:19.202Z,49.47
2022-11-28T10:10:58.868Z,47.60
2022-11-28T10:13:59.886Z,49.70
2022-11-28T10:16:32.568Z,49.22
2022-11-28T10:19:04.563Z,56.35
2022-11-28T10:21:38.087Z,54.17
2022-11-28T10:24:14.077Z,59.40
2022-11-28T10:26:47.591Z,56.78
2022-11-28T10:29:25.736Z,59.53
2022-11-28T10:31:58.343Z,62.17
2022-11-28T10:34:31.548Z,56.28
2022-11-28T10:37:06.219Z,56.65
2022-11-28T10:39:38.870Z,61.40
2022-11-28T10:42:16.706Z,59.83
2022-11-28T10:45:15.049Z,55.92
2022-11-28T10:47:54.961Z,57.75
2022-11-28T10:50:34.043Z,53.38
2022-11-28T10:53:08.221Z,52.70
2022-11-28T10:55:45.243Z,60.13
2022-11-28T10:58:22.533Z,60.13
2022-11-28T11:00:55.384Z,64.03
2022-11-28T11:03:29.260Z,56.45
2022-11-28T11:05:57.943Z,54.90
2022-11-28T11:08:28.327Z,52.88
2022-11-28T11:11:03.043Z,58.00
2022-11-28T11:13:34.503Z,56.35
2022-11-28T11:16:06.120Z,55.22
2022-11-28T11:18:36.645Z,55.00
2022-11-28T11:21:16.985Z,55.65
2022-11-28T11:23:46.181Z,52.58
2022-11-28T11:26:23.973Z,52.90
2022-11-28T11:28:53.640Z,53.08
2022-11-28T11:31:28.548Z,51.65
2022-11-28T11:34:03.676Z,44.72
2022-11-28T11:36:34.385Z,48.40
2022-11-28T11:39:20.733Z,45.28
2022-11-28T11:41:50.827Z,46.28
2022-11-28T11:44:34.421Z,48.97
2022-11-28T11:47:05.765Z,48.97
2022-11-28T11:49:36.158Z,49.58
2022-11-28T11:52:07.147Z,42.60
2022-11-28T11:54:35.374Z,40.22
2022-11-28T11:57:31.382Z,49.17
2022-11-28T11:59:57.144Z,47.45
2022-11-28T12:02:32.373Z,49.85
2022-11-28T12:05:05.812Z,42.22
2022-11-28T12:07:40.366Z,45.85
2022-11-28T12:10:14.238Z,41.10
2022-11-28T12:12:42.602Z,44.88
2022-11-28T12:15:19.105Z,43.40
2022-11-28T12:18:04.401Z,42.70
2022-11-28T12:20:41.787Z,44.92
2022-11-28T12:23:25.539Z,47.33
2022-11-28T12:26:00.955Z,41.58
2022-11-28T12:28:42.691Z,45.22
2022-11-28T12:31:22.906Z,47.35
2022-11-28T12:34:04.189Z,48.30
2022-11-28T12:36:37.912Z,43.28
2022-11-28T12:42:17.297Z,35.25
2022-11-28T12:44:59.950Z,35.92
2022-11-28T12:47:40.782Z,34.60
2022-11-28T12:50:19.772Z,31.20
2022-11-28T12:52:57.320Z,36.45
2022-11-28T12:55:35.457Z,41.88
2022-11-28T12:58:11.780Z,39.40
2022-11-28T13:00:51.912Z,37.78
2022-11-28T13:03:36.104Z,39.13
2022-11-28T13:06:18.375Z,40.88
2022-11-28T13:09:04.458Z,46.78
2022-11-28T13:11:52.439Z,48.95
2022-11-28T13:14:28.837Z,43.53
2022-11-28T13:17:00.000Z,49.55
2022-11-28T13:19:39.729Z,47.58
2022-11-28T13:22:14.844Z,51.85
2022-11-28T13:24:52.181Z,48.35
2022-11-28T13:27:32.632Z,55.53
2022-11-28T13:30:10.517Z,49.08
2022-11-28T13:32:45.924Z,48.95
2022-11-28T13:35:18.644Z,47.85
2022-11-28T13:40:44.248Z,43.90
2022-11-28T13:43:16.089Z,40.47
2022-11-28T13:45:46.867Z,37.80
2022-11-28T13:51:43.540Z,43.55
2022-11-28T13:54:46.414Z,37.75
2022-11-28T13:57:31.268Z,36.95
2022-11-28T14:00:22.655Z,37.97
2022-11-28T14:02:54.646Z,35.90
2022-11-28T14:05:32.876Z,36.33
2022-11-28T14:08:04.479Z,42.65
2022-11-28T14:10:56.681Z,34.90
2022-11-28T14:13:45.031Z,37.97
2022-11-28T14:16:23.838Z,37.28
2022-11-28T14:19:13.833Z,37.33
2022-11-28T14:21:58.018Z,39.45
2022-11-28T14:24:44.583Z,38.15
2022-11-28T14:27:21.919Z,44.33
2022-11-28T14:29:53.279Z,41.90
2022-11-28T14:32:33.654Z,36.33
2022-11-28T14:35:02.623Z,40.42
2022-11-28T14:37:58.888Z,37.80
2022-11-28T14:41:06.971Z,34.83
2022-11-28T14:43:38.257Z,38.90
2022-11-28T14:46:40.816Z,39.45
2022-11-28T14:49:21.914Z,35.67
2022-11-28T14:52:45.178Z,31.05
2022-11-28T14:55:20.698Z,37.20
2022-11-28T14:57:58.189Z,34.72
2022-11-28T15:00:29.977Z,48.22
2022-11-28T15:03:14.024Z,37.60
2022-11-28T15:05:47.608Z,30.30
2022-11-28T15:08:49.441Z,28.85
2022-11-28T15:11:36.521Z,23.40
2022-11-28T15:14:21.925Z,23.15
2022-11-28T15:16:53.938Z,27.10
2022-11-28T15:19:28.952Z,27.83
2022-11-28T15:21:57.891Z,28.05
2022-11-28T15:24:31.254Z,21.23
2022-11-28T15:27:16.899Z,21.73
2022-11-28T15:29:55.378Z,35.58
2022-11-28T15:32:25.943Z,36.13
2022-11-28T15:34:58.032Z,26.60
2022-11-28T15:37:30.390Z,28.67
2022-11-28T15:40:00.835Z,24.95
2022-11-28T15:42:31.817Z,25.70
2022-11-28T15:45:01.781Z,28.42
2022-11-28T15:47:31.941Z,24.90
2022-11-28T15:50:03.097Z,30.98
2022-11-28T15:52:31.989Z,26.13
2022-11-28T15:55:00.212Z,28.63
2022-11-28T15:57:32.727Z,26.73
2022-11-28T16:00:05.244Z,25.67
2022-11-28T16:02:38.866Z,34.72
2022-11-28T16:07:42.835Z,40.03
2022-11-28T16:10:25.454Z,47.85
2022-11-28T16:12:59.374Z,36.35
2022-11-28T16:15:28.364Z,38.95
2022-11-28T16:17:58.197Z,39.17
2022-11-28T16:20:29.134Z,45.33
2022-11-28T16:23:02.678Z,37.78
2022-11-28T16:25:32.824Z,48.92
2022-11-28T16:28:01.377Z,48.85
2022-11-28T16:30:37.009Z,34.55
2022-11-28T16:33:40.035Z,38.88
2022-11-28T16:36:19.475Z,35.80
2022-11-28T16:38:49.819Z,50.08
2022-11-28T16:41:19.120Z,40.05
2022-11-28T16:43:51.384Z,53.33
2022-11-28T16:46:22.861Z,52.72
2022-11-28T16:48:59.801Z,58.05
2022-11-28T16:51:36.327Z,69.05
2022-11-28T16:54:31.003Z,64.30
2022-11-28T16:57:10.487Z,52.45
2022-11-28T16:59:39.201Z,42.00
2022-11-28T17:02:15.533Z,35.00
2022-11-28T17:04:46.039Z,37.42
2022-11-28T17:07:16.750Z,40.63
2022-11-28T17:09:46.955Z,48.00
2022-11-28T17:12:21.107Z,40.35
2022-11-28T17:14:49.498Z,38.53
2022-11-28T17:17:19.037Z,39.33
2022-11-28T17:19:48.669Z,57.50
2022-11-28T17:22:19.922Z,41.33
2022-11-28T17:24:48.951Z,43.00
2022-11-28T17:27:17.350Z,47.63
2022-11-28T17:29:45.814Z,44.78
2022-11-28T17:32:15.497Z,46.78
2022-11-28T17:34:46.114Z,44.17
2022-11-28T17:37:16.791Z,48.88
2022-11-28T17:40:05.673Z,45.55
2022-11-28T17:42:34.087Z,56.22
2022-11-28T17:45:02.323Z,42.00
2022-11-28T17:47:30.510Z,44.28
2022-11-28T17:49:58.831Z,44.88
2022-11-28T17:52:30.360Z,49.40
2022-11-28T17:55:06.906Z,50.38
2022-11-28T17:57:36.000Z,48.47
2022-11-28T18:00:06.751Z,40.42
2022-11-28T18:02:37.428Z,38.42
2022-11-28T18:05:06.372Z,38.25
2022-11-28T18:07:36.010Z,44.95
2022-11-28T18:10:04.969Z,36.20
2022-11-28T18:12:33.593Z,34.50
2022-11-28T18:15:01.768Z,40.95
2022-11-28T18:17:30.007Z,36.13
2022-11-28T18:19:58.718Z,38.35
2022-11-28T18:22:27.111Z,39.60
2022-11-28T18:24:57.664Z,44.13
2022-11-28T18:27:25.816Z,44.13
2022-11-28T18:29:53.948Z,42.42
2022-11-28T18:32:22.263Z,43.45
2022-11-28T18:34:50.322Z,42.28
2022-11-28T18:37:18.616Z,41.85
2022-11-28T18:39:47.295Z,40.35
2022-11-28T18:42:17.975Z,40.88
2022-11-28T18:44:46.190Z,42.47
2022-11-28T18:47:14.587Z,54.80
2022-11-28T18:49:43.047Z,51.42
2022-11-28T18:52:11.551Z,60.38
2022-11-28T18:54:39.820Z,63.15
2022-11-28T18:57:08.739Z,54.97
2022-11-28T18:59:38.525Z,61.67
2022-11-28T19:02:07.074Z,53.80
2022-11-28T19:04:35.325Z,62.08
2022-11-28T19:07:04.350Z,55.50
2022-11-28T19:09:32.958Z,47.10
2022-11-28T19:12:01.171Z,56.47
2022-11-28T19:14:29.501Z,52.05
2022-11-28T19:16:59.795Z,57.35
2022-11-28T19:19:28.039Z,45.58
2022-11-28T19:21:56.379Z,48.28
2022-11-28T19:24:24.626Z,54.13
2022-11-28T19:26:52.853Z,47.47
2022-11-28T19:29:21.211Z,44.30
2022-11-28T19:31:50.319Z,64.25
2022-11-28T19:34:20.362Z,48.92
2022-11-28T19:36:51.273Z,59.35
2022-11-28T19:39:22.212Z,61.00
2022-11-28T19:41:51.812Z,68.97
2022-11-28T19:44:21.017Z,70.57
2022-11-28T19:46:50.307Z,66.72
2022-11-28T19:49:22.052Z,91.70
2022-11-28T19:51:51.200Z,97.90
2022-11-28T19:54:20.887Z,56.90
2022-11-28T19:56:51.307Z,69.55
2022-11-28T19:59:19.543Z,63.45
2022-11-28T20:01:50.005Z,61.38
2022-11-28T20:04:20.444Z,66.45
2022-11-28T20:06:48.799Z,63.67
2022-11-28T20:09:16.927Z,68.35
2022-11-28T20:11:45.977Z,71.45
2022-11-28T20:14:16.403Z,66.20
2022-11-28T20:16:44.929Z,72.80
2022-11-28T20:19:16.041Z,68.85
2022-11-28T20:21:46.135Z,71.32
2022-11-28T20:24:14.408Z,74.78
2022-11-28T20:26:44.162Z,70.28
2022-11-28T20:29:15.883Z,73.25
2022-11-28T20:31:46.600Z,66.55
2022-11-28T20:34:15.771Z,62.88
2022-11-28T20:36:45.489Z,67.28
2022-11-28T20:39:14.135Z,68.05
2022-11-28T20:41:42.373Z,61.40
2022-11-28T20:44:11.633Z,70.18
2022-11-28T20:46:40.028Z,58.78
2022-11-28T20:49:08.615Z,66.93
2022-11-28T20:51:37.257Z,60.80
2022-11-28T20:54:08.271Z,55.78
2022-11-28T20:57:04.974Z,49.35
2022-11-28T20:59:27.878Z,45.53
2022-11-28T21:01:56.442Z,54.53
2022-11-28T21:04:24.614Z,51.03
2022-11-28T21:06:53.140Z,54.33
2022-11-28T21:09:22.888Z,47.58
2022-11-28T21:11:57.521Z,51.42
2022-11-28T21:14:27.506Z,42.92
2022-11-28T21:16:56.014Z,40.78
2022-11-28T21:19:24.319Z,46.95
2022-11-28T21:21:52.680Z,53.10
2022-11-28T21:24:22.636Z,49.83
2022-11-28T21:26:53.891Z,56.33
2022-11-28T21:29:23.873Z,55.03
2022-11-28T21:31:52.490Z,53.17
2022-11-28T21:34:20.731Z,51.60
2022-11-28T21:36:49.033Z,55.45
2022-11-28T21:39:20.107Z,54.45
2022-11-28T21:41:51.073Z,51.40
2022-11-28T21:44:19.635Z,57.33
2022-11-28T21:46:47.802Z,54.40
2022-11-28T21:49:17.257Z,54.60
2022-11-28T21:51:45.571Z,58.17
2022-11-28T21:54:14.045Z,44.28
2022-11-28T21:56:42.718Z,57.55
2022-11-28T21:59:12.253Z,53.75
2022-11-28T22:01:40.600Z,45.15
2022-11-28T22:04:10.728Z,51.85
2022-11-28T22:06:38.957Z,52.92
2022-11-28T22:09:09.863Z,49.47
2022-11-28T22:11:39.390Z,47.95
2022-11-28T22:14:07.920Z,56.80
2022-11-28T22:16:37.409Z,51.50
2022-11-28T22:19:05.895Z,52.05
2022-11-28T22:24:22.625Z,57.53
2022-11-28T22:26:50.860Z,52.83
2022-11-28T22:29:19.148Z,59.58
2022-11-28T22:31:48.956Z,58.10
2022-11-28T22:34:17.205Z,56.85
2022-11-28T22:36:45.383Z,54.13
2022-11-28T22:39:13.678Z,61.88
2022-11-28T22:41:41.823Z,58.75
2022-11-28T22:44:11.915Z,55.35
2022-11-28T22:46:40.613Z,50.78
2022-11-28T22:49:11.373Z,54.97
2022-11-28T22:51:40.552Z,56.20
2022-11-28T22:54:12.265Z,46.67
2022-11-28T22:56:41.190Z,55.03
2022-11-28T22:59:13.079Z,58.90
2022-11-28T23:01:43.920Z,59.78
2022-11-28T23:04:13.944Z,52.28
2022-11-28T23:06:42.142Z,48.78
2022-11-28T23:09:11.784Z,51.13
2022-11-28T23:11:41.090Z,48.33
2022-11-28T23:14:09.839Z,42.63
2022-11-28T23:16:40.722Z,49.45
2022-11-28T23:19:11.959Z,52.53
2022-11-28T23:21:44.526Z,49.28
2022-11-28T23:24:15.339Z,54.55
2022-11-28T23:26:43.512Z,53.92
2022-11-28T23:29:12.159Z,50.17
2022-11-28T23:31:42.174Z,56.35
2022-11-28T23:34:11.097Z,60.20
2022-11-28T23:36:43.039Z,60.83
2022-11-28T23:39:13.294Z,55.67
2022-11-28T23:41:41.805Z,50.97
2022-11-28T23:44:12.439Z,60.35
2022-11-28T23:46:41.608Z,60.60
2022-11-28T23:49:11.001Z,187.63
2022-11-28T23:51:40.371Z,245.35
2022-11-28T23:54:10.909Z,169.05
2022-11-28T23:56:40.227Z,106.88
2022-11-28T23:59:10.479Z,87.75
